sensor_id;sensor_type;location;lat;lon;timestamp;noise_LAeq;noise_LA_min;noise_LA_max;noise_LA01;noise_LA95
68945;Laerm;55984;48.790;8.990;2023-05-20T00:00:12;39.08;35.35;45.60;;
68945;Laerm;55984;48.790;8.990;2023-05-20T00:02:38;40.38;35.78;50.09;;
68945;Laerm;55984;48.790;8.990;2023-05-20T00:05:04;39.90;36.05;45.83;;
68945;Laerm;55984;48.790;8.990;2023-05-20T00:07:31;39.54;33.80;44.39;;
68945;Laerm;55984;48.790;8.990;2023-05-20T00:09:57;39.06;35.59;45.46;;
68945;Laerm;55984;48.790;8.990;2023-05-20T00:12:22;38.03;33.96;43.20;;
68945;Laerm;55984;48.790;8.990;2023-05-20T00:14:48;39.63;36.41;45.63;;
68945;Laerm;55984;48.790;8.990;2023-05-20T00:17:14;40.75;36.27;45.61;;
68945;Laerm;55984;48.790;8.990;2023-05-20T00:19:40;39.44;36.45;44.17;;
68945;Laerm;55984;48.790;8.990;2023-05-20T00:22:06;39.32;35.12;46.22;;
68945;Laerm;55984;48.790;8.990;2023-05-20T00:24:32;40.23;35.09;47.47;;
68945;Laerm;55984;48.790;8.990;2023-05-20T00:26:58;39.50;34.72;46.60;;
68945;Laerm;55984;48.790;8.990;2023-05-20T00:29:24;41.45;36.39;55.83;;
68945;Laerm;55984;48.790;8.990;2023-05-20T00:31:51;41.27;37.12;47.45;;
68945;Laerm;55984;48.790;8.990;2023-05-20T00:34:17;39.56;35.52;45.78;;
68945;Laerm;55984;48.790;8.990;2023-05-20T00:36:43;41.19;36.37;47.03;;
68945;Laerm;55984;48.790;8.990;2023-05-20T00:39:09;39.51;34.53;47.10;;
68945;Laerm;55984;48.790;8.990;2023-05-20T00:41:36;39.57;34.29;46.60;;
68945;Laerm;55984;48.790;8.990;2023-05-20T00:44:03;40.77;35.29;49.43;;
68945;Laerm;55984;48.790;8.990;2023-05-20T00:46:30;38.40;34.29;44.94;;
68945;Laerm;55984;48.790;8.990;2023-05-20T00:48:56;39.27;33.88;57.47;;
68945;Laerm;55984;48.790;8.990;2023-05-20T00:51:22;37.54;33.38;42.94;;
68945;Laerm;55984;48.790;8.990;2023-05-20T00:53:48;37.17;33.70;43.36;;
68945;Laerm;55984;48.790;8.990;2023-05-20T00:56:15;38.98;34.57;45.68;;
68945;Laerm;55984;48.790;8.990;2023-05-20T00:58:41;39.87;36.18;47.58;;
68945;Laerm;55984;48.790;8.990;2023-05-20T01:01:07;39.26;35.43;45.78;;
68945;Laerm;55984;48.790;8.990;2023-05-20T01:03:33;38.18;33.83;44.33;;
68945;Laerm;55984;48.790;8.990;2023-05-20T01:06:00;36.99;32.90;43.31;;
68945;Laerm;55984;48.790;8.990;2023-05-20T01:08:27;38.14;33.42;46.19;;
68945;Laerm;55984;48.790;8.990;2023-05-20T01:11:05;37.66;33.58;51.10;;
68945;Laerm;55984;48.790;8.990;2023-05-20T01:13:49;37.41;32.79;44.57;;
68945;Laerm;55984;48.790;8.990;2023-05-20T01:16:17;38.18;33.05;54.11;;
68945;Laerm;55984;48.790;8.990;2023-05-20T01:18:44;35.69;32.58;42.24;;
68945;Laerm;55984;48.790;8.990;2023-05-20T01:21:12;35.78;33.14;40.89;;
68945;Laerm;55984;48.790;8.990;2023-05-20T01:23:40;35.71;32.32;43.09;;
68945;Laerm;55984;48.790;8.990;2023-05-20T01:26:07;37.13;33.14;42.27;;
68945;Laerm;55984;48.790;8.990;2023-05-20T01:28:34;35.00;32.39;43.73;;
68945;Laerm;55984;48.790;8.990;2023-05-20T01:31:04;35.00;32.66;38.77;;
68945;Laerm;55984;48.790;8.990;2023-05-20T01:33:31;34.27;32.02;40.25;;
68945;Laerm;55984;48.790;8.990;2023-05-20T01:36:00;35.33;32.57;44.88;;
68945;Laerm;55984;48.790;8.990;2023-05-20T01:38:27;34.53;32.11;38.93;;
68945;Laerm;55984;48.790;8.990;2023-05-20T01:40:54;33.36;31.26;36.08;;
68945;Laerm;55984;48.790;8.990;2023-05-20T01:43:22;33.68;32.05;36.54;;
68945;Laerm;55984;48.790;8.990;2023-05-20T01:45:51;34.19;32.52;36.26;;
68945;Laerm;55984;48.790;8.990;2023-05-20T01:48:17;34.25;32.67;37.09;;
68945;Laerm;55984;48.790;8.990;2023-05-20T01:50:43;34.28;32.40;36.25;;
68945;Laerm;55984;48.790;8.990;2023-05-20T01:53:09;34.06;31.96;36.91;;
68945;Laerm;55984;48.790;8.990;2023-05-20T01:55:35;33.55;31.92;37.47;;
68945;Laerm;55984;48.790;8.990;2023-05-20T01:58:01;34.32;32.41;36.80;;
68945;Laerm;55984;48.790;8.990;2023-05-20T02:00:28;34.50;31.93;37.88;;
68945;Laerm;55984;48.790;8.990;2023-05-20T02:02:54;34.69;31.94;37.90;;
68945;Laerm;55984;48.790;8.990;2023-05-20T02:05:20;34.83;32.61;38.14;;
68945;Laerm;55984;48.790;8.990;2023-05-20T02:07:46;34.89;31.81;40.88;;
68945;Laerm;55984;48.790;8.990;2023-05-20T02:10:12;34.99;31.54;49.47;;
68945;Laerm;55984;48.790;8.990;2023-05-20T02:12:38;33.38;31.51;35.65;;
68945;Laerm;55984;48.790;8.990;2023-05-20T02:15:04;33.48;32.04;36.47;;
68945;Laerm;55984;48.790;8.990;2023-05-20T02:17:30;34.03;32.28;38.00;;
68945;Laerm;55984;48.790;8.990;2023-05-20T02:19:56;34.02;32.07;38.34;;
68945;Laerm;55984;48.790;8.990;2023-05-20T02:22:22;33.55;31.81;39.00;;
68945;Laerm;55984;48.790;8.990;2023-05-20T02:24:48;34.13;32.05;40.18;;
68945;Laerm;55984;48.790;8.990;2023-05-20T02:27:14;33.81;31.81;42.30;;
68945;Laerm;55984;48.790;8.990;2023-05-20T02:29:42;34.91;31.80;45.64;;
68945;Laerm;55984;48.790;8.990;2023-05-20T02:32:08;34.65;32.07;42.74;;
68945;Laerm;55984;48.790;8.990;2023-05-20T02:34:34;35.08;31.58;44.09;;
68945;Laerm;55984;48.790;8.990;2023-05-20T02:37:00;36.89;33.09;47.05;;
68945;Laerm;55984;48.790;8.990;2023-05-20T02:39:26;36.93;32.99;46.58;;
68945;Laerm;55984;48.790;8.990;2023-05-20T02:41:52;37.80;32.94;45.66;;
68945;Laerm;55984;48.790;8.990;2023-05-20T02:44:18;38.64;33.48;45.38;;
68945;Laerm;55984;48.790;8.990;2023-05-20T02:46:45;40.27;33.29;52.50;;
68945;Laerm;55984;48.790;8.990;2023-05-20T02:49:11;41.27;33.10;50.61;;
68945;Laerm;55984;48.790;8.990;2023-05-20T02:51:37;41.34;34.62;50.32;;
68945;Laerm;55984;48.790;8.990;2023-05-20T02:54:03;40.18;34.45;46.80;;
68945;Laerm;55984;48.790;8.990;2023-05-20T02:56:29;40.64;34.47;54.43;;
68945;Laerm;55984;48.790;8.990;2023-05-20T02:58:56;42.58;34.70;53.25;;
68945;Laerm;55984;48.790;8.990;2023-05-20T03:01:22;42.75;34.93;53.49;;
68945;Laerm;55984;48.790;8.990;2023-05-20T03:03:48;41.64;35.93;51.95;;
68945;Laerm;55984;48.790;8.990;2023-05-20T03:06:14;40.97;35.93;51.06;;
68945;Laerm;55984;48.790;8.990;2023-05-20T03:08:40;40.25;35.72;53.01;;
68945;Laerm;55984;48.790;8.990;2023-05-20T03:11:07;42.55;35.73;56.28;;
68945;Laerm;55984;48.790;8.990;2023-05-20T03:13:33;41.55;36.32;55.22;;
68945;Laerm;55984;48.790;8.990;2023-05-20T03:15:59;40.19;35.38;56.48;;
68945;Laerm;55984;48.790;8.990;2023-05-20T03:18:27;38.66;35.74;45.43;;
68945;Laerm;55984;48.790;8.990;2023-05-20T03:20:53;38.31;35.10;42.92;;
68945;Laerm;55984;48.790;8.990;2023-05-20T03:23:20;38.71;35.38;47.08;;
68945;Laerm;55984;48.790;8.990;2023-05-20T03:25:46;38.81;35.33;47.27;;
68945;Laerm;55984;48.790;8.990;2023-05-20T03:28:12;38.70;35.00;47.32;;
68945;Laerm;55984;48.790;8.990;2023-05-20T03:30:38;38.11;34.31;44.49;;
68945;Laerm;55984;48.790;8.990;2023-05-20T03:33:05;38.83;36.06;44.11;;
68945;Laerm;55984;48.790;8.990;2023-05-20T03:35:31;40.62;34.86;55.18;;
68945;Laerm;55984;48.790;8.990;2023-05-20T03:37:57;38.06;34.32;45.05;;
68945;Laerm;55984;48.790;8.990;2023-05-20T03:40:25;38.04;34.35;46.98;;
68945;Laerm;55984;48.790;8.990;2023-05-20T03:42:51;37.85;34.69;46.94;;
68945;Laerm;55984;48.790;8.990;2023-05-20T03:45:17;38.54;34.07;53.38;;
68945;Laerm;55984;48.790;8.990;2023-05-20T03:47:43;38.57;34.33;52.68;;
68945;Laerm;55984;48.790;8.990;2023-05-20T03:50:09;37.74;34.31;54.68;;
68945;Laerm;55984;48.790;8.990;2023-05-20T03:52:35;36.58;33.20;44.44;;
68945;Laerm;55984;48.790;8.990;2023-05-20T03:55:01;37.55;34.37;43.40;;
68945;Laerm;55984;48.790;8.990;2023-05-20T03:57:28;37.00;33.60;42.69;;
68945;Laerm;55984;48.790;8.990;2023-05-20T03:59:54;39.16;35.02;47.36;;
68945;Laerm;55984;48.790;8.990;2023-05-20T04:02:20;43.81;33.95;61.25;;
68945;Laerm;55984;48.790;8.990;2023-05-20T04:04:46;37.92;34.74;46.05;;
68945;Laerm;55984;48.790;8.990;2023-05-20T04:07:12;37.60;33.75;45.29;;
68945;Laerm;55984;48.790;8.990;2023-05-20T04:09:39;37.39;34.03;41.66;;
68945;Laerm;55984;48.790;8.990;2023-05-20T04:12:05;37.30;34.30;45.51;;
68945;Laerm;55984;48.790;8.990;2023-05-20T04:14:33;37.47;33.79;50.15;;
68945;Laerm;55984;48.790;8.990;2023-05-20T04:17:02;38.44;35.19;49.36;;
68945;Laerm;55984;48.790;8.990;2023-05-20T04:19:33;37.96;34.18;44.33;;
68945;Laerm;55984;48.790;8.990;2023-05-20T04:22:00;37.74;34.45;44.56;;
68945;Laerm;55984;48.790;8.990;2023-05-20T04:24:28;38.33;34.75;49.24;;
68945;Laerm;55984;48.790;8.990;2023-05-20T04:26:54;37.65;34.79;42.64;;
68945;Laerm;55984;48.790;8.990;2023-05-20T04:29:20;37.60;34.83;43.76;;
68945;Laerm;55984;48.790;8.990;2023-05-20T04:31:47;37.08;33.47;41.34;;
68945;Laerm;55984;48.790;8.990;2023-05-20T04:34:14;36.72;33.72;41.71;;
68945;Laerm;55984;48.790;8.990;2023-05-20T04:36:43;38.11;34.65;48.64;;
68945;Laerm;55984;48.790;8.990;2023-05-20T04:39:09;37.15;33.84;43.89;;
68945;Laerm;55984;48.790;8.990;2023-05-20T04:41:36;37.69;34.66;47.82;;
68945;Laerm;55984;48.790;8.990;2023-05-20T04:44:05;37.12;33.97;45.40;;
68945;Laerm;55984;48.790;8.990;2023-05-20T04:46:32;41.13;34.98;54.82;;
68945;Laerm;55984;48.790;8.990;2023-05-20T04:49:00;39.80;35.25;57.80;;
68945;Laerm;55984;48.790;8.990;2023-05-20T04:51:26;37.38;34.89;48.60;;
68945;Laerm;55984;48.790;8.990;2023-05-20T04:53:54;38.07;35.15;45.53;;
68945;Laerm;55984;48.790;8.990;2023-05-20T04:56:22;41.28;34.64;55.48;;
68945;Laerm;55984;48.790;8.990;2023-05-20T04:58:48;40.46;34.85;52.50;;
68945;Laerm;55984;48.790;8.990;2023-05-20T05:01:14;37.62;34.60;42.40;;
68945;Laerm;55984;48.790;8.990;2023-05-20T05:03:41;37.32;35.01;49.77;;
68945;Laerm;55984;48.790;8.990;2023-05-20T05:06:06;37.21;34.41;44.54;;
68945;Laerm;55984;48.790;8.990;2023-05-20T05:08:35;39.21;34.54;54.83;;
68945;Laerm;55984;48.790;8.990;2023-05-20T05:11:04;44.81;35.36;61.49;;
68945;Laerm;55984;48.790;8.990;2023-05-20T05:13:33;48.87;34.30;65.57;;
68945;Laerm;55984;48.790;8.990;2023-05-20T05:15:59;36.12;33.86;43.64;;
68945;Laerm;55984;48.790;8.990;2023-05-20T05:18:26;36.51;34.32;44.07;;
68945;Laerm;55984;48.790;8.990;2023-05-20T05:21:02;36.25;33.59;41.59;;
68945;Laerm;55984;48.790;8.990;2023-05-20T05:23:29;47.66;34.49;62.36;;
68945;Laerm;55984;48.790;8.990;2023-05-20T05:25:55;38.72;33.37;53.29;;
68945;Laerm;55984;48.790;8.990;2023-05-20T05:28:21;38.79;33.92;51.39;;
68945;Laerm;55984;48.790;8.990;2023-05-20T05:30:47;37.50;34.00;49.38;;
68945;Laerm;55984;48.790;8.990;2023-05-20T05:33:13;38.57;33.96;53.97;;
68945;Laerm;55984;48.790;8.990;2023-05-20T05:35:40;39.04;33.96;56.66;;
68945;Laerm;55984;48.790;8.990;2023-05-20T05:38:07;37.07;33.68;45.82;;
68945;Laerm;55984;48.790;8.990;2023-05-20T05:40:34;39.42;33.50;57.45;;
68945;Laerm;55984;48.790;8.990;2023-05-20T05:43:00;39.36;34.03;54.16;;
68945;Laerm;55984;48.790;8.990;2023-05-20T05:45:27;36.27;33.95;47.50;;
68945;Laerm;55984;48.790;8.990;2023-05-20T05:47:53;41.65;33.90;57.41;;
68945;Laerm;55984;48.790;8.990;2023-05-20T05:50:20;37.24;33.82;43.48;;
68945;Laerm;55984;48.790;8.990;2023-05-20T05:52:46;38.70;33.59;49.41;;
68945;Laerm;55984;48.790;8.990;2023-05-20T05:55:12;40.66;33.85;53.22;;
68945;Laerm;55984;48.790;8.990;2023-05-20T05:57:38;38.56;33.65;44.90;;
68945;Laerm;55984;48.790;8.990;2023-05-20T06:00:04;40.52;34.08;52.73;;
68945;Laerm;55984;48.790;8.990;2023-05-20T06:02:30;48.49;34.80;66.48;;
68945;Laerm;55984;48.790;8.990;2023-05-20T06:05:01;40.53;34.95;47.46;;
68945;Laerm;55984;48.790;8.990;2023-05-20T06:07:27;43.85;34.04;56.81;;
68945;Laerm;55984;48.790;8.990;2023-05-20T06:09:54;50.37;35.83;66.31;;
68945;Laerm;55984;48.790;8.990;2023-05-20T06:12:20;41.51;34.19;58.88;;
68945;Laerm;55984;48.790;8.990;2023-05-20T06:14:47;40.01;33.81;58.00;;
68945;Laerm;55984;48.790;8.990;2023-05-20T06:17:13;38.72;34.05;57.79;;
68945;Laerm;55984;48.790;8.990;2023-05-20T06:19:40;48.42;35.66;63.14;;
68945;Laerm;55984;48.790;8.990;2023-05-20T06:22:07;41.73;34.49;51.79;;
68945;Laerm;55984;48.790;8.990;2023-05-20T06:24:33;41.78;33.59;61.20;;
68945;Laerm;55984;48.790;8.990;2023-05-20T06:26:59;44.80;35.16;58.47;;
68945;Laerm;55984;48.790;8.990;2023-05-20T06:29:25;40.28;35.06;54.96;;
68945;Laerm;55984;48.790;8.990;2023-05-20T06:31:51;43.87;34.47;60.55;;
68945;Laerm;55984;48.790;8.990;2023-05-20T06:34:19;37.86;34.39;47.51;;
68945;Laerm;55984;48.790;8.990;2023-05-20T06:36:45;42.47;34.00;58.14;;
68945;Laerm;55984;48.790;8.990;2023-05-20T06:39:16;41.58;33.92;55.24;;
68945;Laerm;55984;48.790;8.990;2023-05-20T06:41:42;43.72;34.63;61.75;;
68945;Laerm;55984;48.790;8.990;2023-05-20T06:44:11;41.09;34.32;62.13;;
68945;Laerm;55984;48.790;8.990;2023-05-20T06:46:37;44.15;35.60;60.69;;
68945;Laerm;55984;48.790;8.990;2023-05-20T06:49:07;48.08;35.07;67.46;;
68945;Laerm;55984;48.790;8.990;2023-05-20T06:51:33;45.30;34.46;63.54;;
68945;Laerm;55984;48.790;8.990;2023-05-20T06:53:59;41.07;34.41;53.40;;
68945;Laerm;55984;48.790;8.990;2023-05-20T06:56:26;42.42;33.87;57.11;;
68945;Laerm;55984;48.790;8.990;2023-05-20T06:58:53;39.60;34.30;56.20;;
68945;Laerm;55984;48.790;8.990;2023-05-20T07:01:20;46.07;34.35;63.71;;
68945;Laerm;55984;48.790;8.990;2023-05-20T07:03:45;43.67;35.23;57.58;;
68945;Laerm;55984;48.790;8.990;2023-05-20T07:06:14;46.40;35.20;62.00;;
68945;Laerm;55984;48.790;8.990;2023-05-20T07:08:41;45.30;34.94;59.76;;
68945;Laerm;55984;48.790;8.990;2023-05-20T07:11:09;45.17;34.55;57.69;;
68945;Laerm;55984;48.790;8.990;2023-05-20T07:13:36;45.57;34.35;55.35;;
68945;Laerm;55984;48.790;8.990;2023-05-20T07:16:02;48.37;34.31;64.93;;
68945;Laerm;55984;48.790;8.990;2023-05-20T07:18:28;55.28;35.70;74.60;;
68945;Laerm;55984;48.790;8.990;2023-05-20T07:20:54;59.12;34.79;71.47;;
68945;Laerm;55984;48.790;8.990;2023-05-20T07:23:22;50.60;34.60;59.68;;
68945;Laerm;55984;48.790;8.990;2023-05-20T07:25:49;53.99;35.24;68.52;;
68945;Laerm;55984;48.790;8.990;2023-05-20T07:28:15;56.99;51.66;67.44;;
68945;Laerm;55984;48.790;8.990;2023-05-20T07:30:42;55.71;36.66;70.54;;
68945;Laerm;55984;48.790;8.990;2023-05-20T07:33:14;46.35;36.63;64.15;;
68945;Laerm;55984;48.790;8.990;2023-05-20T07:35:40;46.07;34.88;68.88;;
68945;Laerm;55984;48.790;8.990;2023-05-20T07:38:06;46.27;35.06;58.72;;
68945;Laerm;55984;48.790;8.990;2023-05-20T07:40:32;49.82;36.39;64.03;;
68945;Laerm;55984;48.790;8.990;2023-05-20T07:42:58;44.60;34.35;65.55;;
68945;Laerm;55984;48.790;8.990;2023-05-20T07:45:24;45.26;36.63;57.38;;
68945;Laerm;55984;48.790;8.990;2023-05-20T07:47:50;49.46;36.43;64.81;;
68945;Laerm;55984;48.790;8.990;2023-05-20T07:50:15;47.51;36.95;63.85;;
68945;Laerm;55984;48.790;8.990;2023-05-20T07:52:41;43.80;35.85;59.24;;
68945;Laerm;55984;48.790;8.990;2023-05-20T07:55:07;41.86;35.70;49.07;;
68945;Laerm;55984;48.790;8.990;2023-05-20T07:57:33;41.15;35.01;63.97;;
68945;Laerm;55984;48.790;8.990;2023-05-20T07:59:59;41.78;35.89;65.82;;
68945;Laerm;55984;48.790;8.990;2023-05-20T08:02:25;46.16;35.21;61.03;;
68945;Laerm;55984;48.790;8.990;2023-05-20T08:04:51;46.41;34.71;65.04;;
68945;Laerm;55984;48.790;8.990;2023-05-20T08:07:17;47.47;34.40;66.71;;
68945;Laerm;55984;48.790;8.990;2023-05-20T08:09:43;47.84;34.86;60.75;;
68945;Laerm;55984;48.790;8.990;2023-05-20T08:12:09;47.10;34.85;64.17;;
68945;Laerm;55984;48.790;8.990;2023-05-20T08:14:35;51.98;35.24;72.74;;
68945;Laerm;55984;48.790;8.990;2023-05-20T08:17:01;57.50;35.48;69.89;;
68945;Laerm;55984;48.790;8.990;2023-05-20T08:19:27;60.52;34.20;70.99;;
68945;Laerm;55984;48.790;8.990;2023-05-20T08:21:53;61.02;35.05;72.98;;
68945;Laerm;55984;48.790;8.990;2023-05-20T08:24:18;59.90;34.75;76.46;;
68945;Laerm;55984;48.790;8.990;2023-05-20T08:26:44;59.02;35.43;71.08;;
68945;Laerm;55984;48.790;8.990;2023-05-20T08:29:10;59.36;35.01;71.69;;
68945;Laerm;55984;48.790;8.990;2023-05-20T08:31:37;56.11;35.78;69.95;;
68945;Laerm;55984;48.790;8.990;2023-05-20T08:34:03;47.04;37.94;56.28;;
68945;Laerm;55984;48.790;8.990;2023-05-20T08:36:29;41.81;35.87;55.25;;
68945;Laerm;55984;48.790;8.990;2023-05-20T08:38:55;51.72;35.30;70.88;;
68945;Laerm;55984;48.790;8.990;2023-05-20T08:41:21;60.30;35.71;71.58;;
68945;Laerm;55984;48.790;8.990;2023-05-20T08:43:49;60.32;36.11;78.10;;
68945;Laerm;55984;48.790;8.990;2023-05-20T08:46:17;60.86;36.41;74.94;;
68945;Laerm;55984;48.790;8.990;2023-05-20T08:48:43;57.22;34.98;72.00;;
68945;Laerm;55984;48.790;8.990;2023-05-20T08:51:10;57.73;36.29;69.78;;
68945;Laerm;55984;48.790;8.990;2023-05-20T08:53:36;57.86;35.88;70.25;;
68945;Laerm;55984;48.790;8.990;2023-05-20T08:56:02;59.18;36.17;72.32;;
68945;Laerm;55984;48.790;8.990;2023-05-20T08:58:30;58.23;34.76;71.36;;
68945;Laerm;55984;48.790;8.990;2023-05-20T09:00:57;59.69;35.63;76.02;;
68945;Laerm;55984;48.790;8.990;2023-05-20T09:03:23;59.12;35.34;73.33;;
68945;Laerm;55984;48.790;8.990;2023-05-20T09:05:51;59.76;35.31;74.45;;
68945;Laerm;55984;48.790;8.990;2023-05-20T09:08:17;58.11;35.75;70.81;;
68945;Laerm;55984;48.790;8.990;2023-05-20T09:10:43;52.94;35.45;68.82;;
68945;Laerm;55984;48.790;8.990;2023-05-20T09:13:09;59.09;35.21;72.62;;
68945;Laerm;55984;48.790;8.990;2023-05-20T09:15:36;54.99;34.40;69.96;;
68945;Laerm;55984;48.790;8.990;2023-05-20T09:18:03;50.64;35.35;74.87;;
68945;Laerm;55984;48.790;8.990;2023-05-20T09:20:29;59.50;35.34;72.99;;
68945;Laerm;55984;48.790;8.990;2023-05-20T09:23:01;59.09;35.52;73.45;;
68945;Laerm;55984;48.790;8.990;2023-05-20T09:25:34;59.17;35.37;73.61;;
68945;Laerm;55984;48.790;8.990;2023-05-20T09:28:01;60.52;35.54;73.83;;
68945;Laerm;55984;48.790;8.990;2023-05-20T09:30:30;58.86;34.95;70.68;;
68945;Laerm;55984;48.790;8.990;2023-05-20T09:33:04;43.10;35.69;55.66;;
68945;Laerm;55984;48.790;8.990;2023-05-20T09:35:35;42.13;36.14;50.58;;
68945;Laerm;55984;48.790;8.990;2023-05-20T09:38:04;39.12;36.17;48.47;;
68945;Laerm;55984;48.790;8.990;2023-05-20T09:40:32;43.72;35.84;60.77;;
68945;Laerm;55984;48.790;8.990;2023-05-20T09:43:06;42.48;36.48;60.58;;
68945;Laerm;55984;48.790;8.990;2023-05-20T09:45:41;48.09;36.12;72.93;;
68945;Laerm;55984;48.790;8.990;2023-05-20T09:48:14;42.70;35.87;61.11;;
68945;Laerm;55984;48.790;8.990;2023-05-20T09:50:40;44.68;36.42;58.12;;
68945;Laerm;55984;48.790;8.990;2023-05-20T09:53:09;43.74;36.31;58.78;;
68945;Laerm;55984;48.790;8.990;2023-05-20T09:55:37;43.88;35.84;52.74;;
68945;Laerm;55984;48.790;8.990;2023-05-20T09:58:03;43.46;35.25;56.46;;
68945;Laerm;55984;48.790;8.990;2023-05-20T10:00:29;44.78;35.29;62.97;;
68945;Laerm;55984;48.790;8.990;2023-05-20T10:02:56;42.31;35.58;55.34;;
68945;Laerm;55984;48.790;8.990;2023-05-20T10:05:34;42.36;35.82;61.12;;
68945;Laerm;55984;48.790;8.990;2023-05-20T10:08:13;41.31;35.43;54.71;;
68945;Laerm;55984;48.790;8.990;2023-05-20T10:16:52;41.03;34.74;61.19;;
68945;Laerm;55984;48.790;8.990;2023-05-20T10:19:31;41.76;35.06;62.22;;
68945;Laerm;55984;48.790;8.990;2023-05-20T10:22:06;52.58;35.36;65.95;;
68945;Laerm;55984;48.790;8.990;2023-05-20T10:24:39;57.20;35.64;68.41;;
68945;Laerm;55984;48.790;8.990;2023-05-20T10:27:10;56.82;34.56;69.40;;
68945;Laerm;55984;48.790;8.990;2023-05-20T10:29:56;56.76;34.08;74.66;;
68945;Laerm;55984;48.790;8.990;2023-05-20T10:32:31;55.68;33.97;66.14;;
68945;Laerm;55984;48.790;8.990;2023-05-20T10:35:01;51.38;34.58;65.20;;
68945;Laerm;55984;48.790;8.990;2023-05-20T10:37:40;57.67;34.28;68.92;;
68945;Laerm;55984;48.790;8.990;2023-05-20T10:40:14;52.85;34.85;65.51;;
68945;Laerm;55984;48.790;8.990;2023-05-20T10:42:41;58.85;34.21;68.81;;
68945;Laerm;55984;48.790;8.990;2023-05-20T10:45:08;57.15;34.35;71.37;;
68945;Laerm;55984;48.790;8.990;2023-05-20T10:47:35;58.37;35.37;72.23;;
68945;Laerm;55984;48.790;8.990;2023-05-20T10:50:01;57.66;35.20;72.21;;
68945;Laerm;55984;48.790;8.990;2023-05-20T10:52:37;55.32;36.27;68.67;;
68945;Laerm;55984;48.790;8.990;2023-05-20T10:55:03;59.25;36.38;68.63;;
68945;Laerm;55984;48.790;8.990;2023-05-20T10:57:29;50.98;35.79;68.53;;
68945;Laerm;55984;48.790;8.990;2023-05-20T10:59:56;45.24;35.28;61.67;;
68945;Laerm;55984;48.790;8.990;2023-05-20T11:02:23;42.47;35.32;58.63;;
68945;Laerm;55984;48.790;8.990;2023-05-20T11:04:51;56.58;35.97;68.30;;
68945;Laerm;55984;48.790;8.990;2023-05-20T11:07:29;56.13;35.55;68.16;;
68945;Laerm;55984;48.790;8.990;2023-05-20T11:09:59;57.14;34.10;70.21;;
68945;Laerm;55984;48.790;8.990;2023-05-20T11:12:26;54.91;34.90;68.25;;
68945;Laerm;55984;48.790;8.990;2023-05-20T11:14:52;57.13;34.74;70.31;;
68945;Laerm;55984;48.790;8.990;2023-05-20T11:17:19;58.67;35.34;73.04;;
68945;Laerm;55984;48.790;8.990;2023-05-20T11:19:45;58.19;34.70;69.49;;
68945;Laerm;55984;48.790;8.990;2023-05-20T11:22:11;59.86;35.28;74.08;;
68945;Laerm;55984;48.790;8.990;2023-05-20T11:24:37;59.53;37.00;73.29;;
68945;Laerm;55984;48.790;8.990;2023-05-20T11:27:03;60.66;36.13;73.46;;
68945;Laerm;55984;48.790;8.990;2023-05-20T11:29:29;60.89;35.42;74.88;;
68945;Laerm;55984;48.790;8.990;2023-05-20T11:31:57;62.08;34.63;73.18;;
68945;Laerm;55984;48.790;8.990;2023-05-20T11:34:24;53.97;34.74;70.30;;
68945;Laerm;55984;48.790;8.990;2023-05-20T11:36:59;40.79;34.48;63.83;;
68945;Laerm;55984;48.790;8.990;2023-05-20T11:39:28;41.95;34.36;53.22;;
68945;Laerm;55984;48.790;8.990;2023-05-20T11:41:54;48.25;34.65;66.92;;
68945;Laerm;55984;48.790;8.990;2023-05-20T11:44:20;40.30;35.54;51.90;;
68945;Laerm;55984;48.790;8.990;2023-05-20T11:46:47;46.39;34.69;58.67;;
68945;Laerm;55984;48.790;8.990;2023-05-20T11:49:14;43.82;35.21;60.45;;
68945;Laerm;55984;48.790;8.990;2023-05-20T11:51:40;57.14;35.27;80.63;;
68945;Laerm;55984;48.790;8.990;2023-05-20T11:54:07;52.69;34.51;71.22;;
68945;Laerm;55984;48.790;8.990;2023-05-20T11:56:38;45.93;35.29;63.13;;
68945;Laerm;55984;48.790;8.990;2023-05-20T11:59:07;44.61;34.95;60.84;;
68945;Laerm;55984;48.790;8.990;2023-05-20T12:01:36;43.23;35.76;56.26;;
68945;Laerm;55984;48.790;8.990;2023-05-20T12:04:04;47.70;35.34;67.75;;
68945;Laerm;55984;48.790;8.990;2023-05-20T12:06:31;42.08;35.19;55.86;;
68945;Laerm;55984;48.790;8.990;2023-05-20T12:09:01;40.64;34.61;53.47;;
68945;Laerm;55984;48.790;8.990;2023-05-20T12:11:35;44.85;36.95;54.42;;
68945;Laerm;55984;48.790;8.990;2023-05-20T12:14:04;43.98;36.18;54.90;;
68945;Laerm;55984;48.790;8.990;2023-05-20T12:16:34;40.00;35.48;47.21;;
68945;Laerm;55984;48.790;8.990;2023-05-20T12:19:01;40.58;35.28;50.92;;
68945;Laerm;55984;48.790;8.990;2023-05-20T12:21:27;42.77;34.61;56.70;;
68945;Laerm;55984;48.790;8.990;2023-05-20T12:23:53;40.12;34.44;46.37;;
68945;Laerm;55984;48.790;8.990;2023-05-20T12:26:23;40.23;35.29;50.26;;
68945;Laerm;55984;48.790;8.990;2023-05-20T12:28:49;41.20;35.95;50.43;;
68945;Laerm;55984;48.790;8.990;2023-05-20T12:31:15;44.98;36.26;59.27;;
68945;Laerm;55984;48.790;8.990;2023-05-20T12:33:41;42.49;35.94;52.63;;
68945;Laerm;55984;48.790;8.990;2023-05-20T12:36:07;40.32;35.78;48.98;;
68945;Laerm;55984;48.790;8.990;2023-05-20T12:38:33;40.89;34.78;58.39;;
68945;Laerm;55984;48.790;8.990;2023-05-20T12:40:59;45.24;34.72;61.57;;
68945;Laerm;55984;48.790;8.990;2023-05-20T12:43:26;41.39;35.22;56.67;;
68945;Laerm;55984;48.790;8.990;2023-05-20T12:45:52;40.65;34.92;53.94;;
68945;Laerm;55984;48.790;8.990;2023-05-20T12:48:18;43.67;34.75;59.33;;
68945;Laerm;55984;48.790;8.990;2023-05-20T12:50:44;47.43;34.05;66.23;;
68945;Laerm;55984;48.790;8.990;2023-05-20T12:53:10;41.84;34.00;50.40;;
68945;Laerm;55984;48.790;8.990;2023-05-20T12:55:36;41.55;34.11;49.81;;
68945;Laerm;55984;48.790;8.990;2023-05-20T12:58:02;40.84;34.10;53.45;;
68945;Laerm;55984;48.790;8.990;2023-05-20T13:00:28;45.24;34.17;59.70;;
68945;Laerm;55984;48.790;8.990;2023-05-20T13:02:55;52.39;35.52;74.10;;
68945;Laerm;55984;48.790;8.990;2023-05-20T13:05:21;43.32;34.71;62.75;;
68945;Laerm;55984;48.790;8.990;2023-05-20T13:07:47;43.55;35.05;62.20;;
68945;Laerm;55984;48.790;8.990;2023-05-20T13:10:13;45.25;35.85;61.98;;
68945;Laerm;55984;48.790;8.990;2023-05-20T13:12:41;48.75;35.99;64.46;;
68945;Laerm;55984;48.790;8.990;2023-05-20T13:15:10;50.05;37.49;66.64;;
68945;Laerm;55984;48.790;8.990;2023-05-20T13:17:37;48.91;36.79;63.79;;
68945;Laerm;55984;48.790;8.990;2023-05-20T13:20:04;48.56;35.02;61.19;;
68945;Laerm;55984;48.790;8.990;2023-05-20T13:22:33;47.85;35.37;60.10;;
68945;Laerm;55984;48.790;8.990;2023-05-20T13:24:59;42.18;35.97;56.29;;
68945;Laerm;55984;48.790;8.990;2023-05-20T13:27:25;43.32;36.86;50.78;;
68945;Laerm;55984;48.790;8.990;2023-05-20T13:29:51;44.62;37.48;56.54;;
68945;Laerm;55984;48.790;8.990;2023-05-20T13:32:17;46.60;38.51;55.20;;
68945;Laerm;55984;48.790;8.990;2023-05-20T13:34:43;45.21;38.00;52.04;;
68945;Laerm;55984;48.790;8.990;2023-05-20T13:37:09;43.60;37.05;55.58;;
68945;Laerm;55984;48.790;8.990;2023-05-20T13:39:35;44.93;37.46;57.59;;
68945;Laerm;55984;48.790;8.990;2023-05-20T13:42:01;43.51;36.16;54.57;;
68945;Laerm;55984;48.790;8.990;2023-05-20T13:44:28;49.00;35.53;62.46;;
68945;Laerm;55984;48.790;8.990;2023-05-20T13:46:54;42.61;35.62;61.66;;
68945;Laerm;55984;48.790;8.990;2023-05-20T13:49:20;43.00;37.05;53.28;;